sensor_id;sensor_type;location;lat;lon;timestamp;P1;durP1;ratioP1;P2;durP2;ratioP2
77854;SDS011;67046;50.088;14.336;2023-04-15T00:00:13;2.00;;;1.60;;
77854;SDS011;67046;50.088;14.336;2023-04-15T00:01:06;2.50;;;1.90;;
77854;SDS011;67046;50.088;14.336;2023-04-15T00:01:38;3.80;;;1.40;;
77854;SDS011;67046;50.088;14.336;2023-04-15T00:02:16;2.20;;;1.40;;
77854;SDS011;67046;50.088;14.336;2023-04-15T00:02:50;1.70;;;1.30;;
77854;SDS011;67046;50.088;14.336;2023-04-15T00:03:21;1.60;;;1.10;;
77854;SDS011;67046;50.088;14.336;2023-04-15T00:03:53;1.80;;;1.20;;
77854;SDS011;67046;50.088;14.336;2023-04-15T00:04:58;2.80;;;1.50;;
77854;SDS011;67046;50.088;14.336;2023-04-15T00:05:30;1.80;;;1.50;;
77854;SDS011;67046;50.088;14.336;2023-04-15T00:06:02;1.40;;;1.30;;
77854;SDS011;67046;50.088;14.336;2023-04-15T00:06:35;2.10;;;1.50;;
77854;SDS011;67046;50.088;14.336;2023-04-15T00:07:08;1.70;;;1.30;;
77854;SDS011;67046;50.088;14.336;2023-04-15T00:08:12;2.10;;;1.20;;
77854;SDS011;67046;50.088;14.336;2023-04-15T00:08:44;1.60;;;1.20;;
77854;SDS011;67046;50.088;14.336;2023-04-15T00:09:17;1.80;;;1.20;;
77854;SDS011;67046;50.088;14.336;2023-04-15T00:09:49;1.90;;;1.40;;
77854;SDS011;67046;50.088;14.336;2023-04-15T00:10:25;2.10;;;1.50;;
77854;SDS011;67046;50.088;14.336;2023-04-15T00:10:58;2.80;;;1.50;;
77854;SDS011;67046;50.088;14.336;2023-04-15T00:11:36;1.90;;;1.40;;
77854;SDS011;67046;50.088;14.336;2023-04-15T00:12:08;1.50;;;1.20;;
77854;SDS011;67046;50.088;14.336;2023-04-15T00:12:40;1.90;;;1.50;;
77854;SDS011;67046;50.088;14.336;2023-04-15T00:13:12;1.70;;;1.40;;
77854;SDS011;67046;50.088;14.336;2023-04-15T00:13:44;2.80;;;1.70;;
77854;SDS011;67046;50.088;14.336;2023-04-15T00:14:17;1.40;;;1.20;;
77854;SDS011;67046;50.088;14.336;2023-04-15T00:14:49;1.90;;;1.70;;
77854;SDS011;67046;50.088;14.336;2023-04-15T00:15:21;1.60;;;1.30;;
77854;SDS011;67046;50.088;14.336;2023-04-15T00:16:25;1.80;;;1.40;;
77854;SDS011;67046;50.088;14.336;2023-04-15T00:16:57;1.80;;;1.20;;
77854;SDS011;67046;50.088;14.336;2023-04-15T00:17:29;1.60;;;1.30;;
77854;SDS011;67046;50.088;14.336;2023-04-15T00:18:01;1.50;;;1.20;;
77854;SDS011;67046;50.088;14.336;2023-04-15T00:18:33;1.60;;;1.20;;
77854;SDS011;67046;50.088;14.336;2023-04-15T00:19:06;2.30;;;1.10;;
77854;SDS011;67046;50.088;14.336;2023-04-15T00:19:38;1.40;;;1.00;;
77854;SDS011;67046;50.088;14.336;2023-04-15T00:20:11;1.30;;;0.90;;
77854;SDS011;67046;50.088;14.336;2023-04-15T00:20:43;2.70;;;1.30;;
77854;SDS011;67046;50.088;14.336;2023-04-15T00:21:15;1.40;;;1.00;;
77854;SDS011;67046;50.088;14.336;2023-04-15T00:21:47;1.10;;;0.80;;
77854;SDS011;67046;50.088;14.336;2023-04-15T00:22:19;1.20;;;0.90;;
77854;SDS011;67046;50.088;14.336;2023-04-15T00:22:52;1.30;;;1.00;;
77854;SDS011;67046;50.088;14.336;2023-04-15T00:23:24;1.80;;;1.20;;
77854;SDS011;67046;50.088;14.336;2023-04-15T00:23:56;2.60;;;1.00;;
77854;SDS011;67046;50.088;14.336;2023-04-15T00:24:28;1.50;;;1.10;;
77854;SDS011;67046;50.088;14.336;2023-04-15T00:25:01;1.60;;;1.10;;
77854;SDS011;67046;50.088;14.336;2023-04-15T00:25:33;1.50;;;1.10;;
77854;SDS011;67046;50.088;14.336;2023-04-15T00:26:05;1.60;;;1.20;;
77854;SDS011;67046;50.088;14.336;2023-04-15T00:26:38;1.70;;;1.20;;
77854;SDS011;67046;50.088;14.336;2023-04-15T00:27:42;1.50;;;1.10;;
77854;SDS011;67046;50.088;14.336;2023-04-15T00:28:14;2.40;;;1.20;;
77854;SDS011;67046;50.088;14.336;2023-04-15T00:29:18;2.20;;;1.30;;
77854;SDS011;67046;50.088;14.336;2023-04-15T00:30:23;1.30;;;1.20;;
77854;SDS011;67046;50.088;14.336;2023-04-15T00:30:56;1.50;;;1.20;;
77854;SDS011;67046;50.088;14.336;2023-04-15T00:31:28;2.20;;;1.20;;
77854;SDS011;67046;50.088;14.336;2023-04-15T00:32:01;4.30;;;1.20;;
77854;SDS011;67046;50.088;14.336;2023-04-15T00:32:33;1.20;;;1.10;;
77854;SDS011;67046;50.088;14.336;2023-04-15T00:33:05;1.50;;;1.00;;
77854;SDS011;67046;50.088;14.336;2023-04-15T00:33:37;1.40;;;1.20;;
77854;SDS011;67046;50.088;14.336;2023-04-15T00:34:09;1.40;;;1.10;;
77854;SDS011;67046;50.088;14.336;2023-04-15T00:34:41;1.60;;;1.30;;
77854;SDS011;67046;50.088;14.336;2023-04-15T00:35:13;1.10;;;0.90;;
77854;SDS011;67046;50.088;14.336;2023-04-15T00:35:45;1.40;;;1.00;;
77854;SDS011;67046;50.088;14.336;2023-04-15T00:36:17;1.70;;;1.20;;
77854;SDS011;67046;50.088;14.336;2023-04-15T00:36:49;2.40;;;1.10;;
77854;SDS011;67046;50.088;14.336;2023-04-15T00:37:22;2.00;;;1.00;;
77854;SDS011;67046;50.088;14.336;2023-04-15T00:37:54;1.60;;;1.10;;
77854;SDS011;67046;50.088;14.336;2023-04-15T00:38:26;1.30;;;1.00;;
77854;SDS011;67046;50.088;14.336;2023-04-15T00:39:30;1.70;;;1.40;;
77854;SDS011;67046;50.088;14.336;2023-04-15T00:40:02;1.90;;;1.20;;
77854;SDS011;67046;50.088;14.336;2023-04-15T00:40:36;1.50;;;1.10;;
77854;SDS011;67046;50.088;14.336;2023-04-15T00:41:08;1.40;;;1.10;;
77854;SDS011;67046;50.088;14.336;2023-04-15T00:41:42;1.40;;;1.00;;
77854;SDS011;67046;50.088;14.336;2023-04-15T00:42:14;1.20;;;1.00;;
77854;SDS011;67046;50.088;14.336;2023-04-15T00:42:47;1.20;;;1.10;;
77854;SDS011;67046;50.088;14.336;2023-04-15T00:43:19;1.80;;;1.10;;
77854;SDS011;67046;50.088;14.336;2023-04-15T00:43:51;1.30;;;1.10;;
77854;SDS011;67046;50.088;14.336;2023-04-15T00:44:23;1.90;;;0.90;;
77854;SDS011;67046;50.088;14.336;2023-04-15T00:44:55;1.90;;;0.90;;
77854;SDS011;67046;50.088;14.336;2023-04-15T00:45:27;1.30;;;0.80;;
77854;SDS011;67046;50.088;14.336;2023-04-15T00:46:00;1.10;;;0.90;;
77854;SDS011;67046;50.088;14.336;2023-04-15T00:46:35;1.10;;;0.80;;
77854;SDS011;67046;50.088;14.336;2023-04-15T00:47:10;1.40;;;0.90;;
77854;SDS011;67046;50.088;14.336;2023-04-15T00:47:43;1.10;;;0.90;;
77854;SDS011;67046;50.088;14.336;2023-04-15T00:48:16;1.70;;;1.00;;
77854;SDS011;67046;50.088;14.336;2023-04-15T00:48:48;1.60;;;0.90;;
77854;SDS011;67046;50.088;14.336;2023-04-15T00:49:22;1.30;;;0.90;;
77854;SDS011;67046;50.088;14.336;2023-04-15T00:49:54;1.70;;;0.90;;
77854;SDS011;67046;50.088;14.336;2023-04-15T00:50:27;1.20;;;0.90;;
77854;SDS011;67046;50.088;14.336;2023-04-15T00:50:59;2.60;;;1.10;;
77854;SDS011;67046;50.088;14.336;2023-04-15T00:52:04;1.20;;;0.90;;
77854;SDS011;67046;50.088;14.336;2023-04-15T00:52:36;1.50;;;1.10;;
77854;SDS011;67046;50.088;14.336;2023-04-15T00:53:08;1.40;;;1.10;;
77854;SDS011;67046;50.088;14.336;2023-04-15T00:53:40;1.50;;;1.10;;
77854;SDS011;67046;50.088;14.336;2023-04-15T00:54:12;1.60;;;1.20;;
77854;SDS011;67046;50.088;14.336;2023-04-15T00:54:44;1.20;;;1.10;;
77854;SDS011;67046;50.088;14.336;2023-04-15T00:55:16;1.60;;;1.30;;
77854;SDS011;67046;50.088;14.336;2023-04-15T00:55:49;1.60;;;1.10;;
77854;SDS011;67046;50.088;14.336;2023-04-15T00:56:54;1.40;;;1.10;;
77854;SDS011;67046;50.088;14.336;2023-04-15T00:57:27;1.40;;;1.20;;
77854;SDS011;67046;50.088;14.336;2023-04-15T00:57:59;1.40;;;1.00;;
77854;SDS011;67046;50.088;14.336;2023-04-15T00:59:04;1.40;;;1.20;;
77854;SDS011;67046;50.088;14.336;2023-04-15T00:59:37;1.60;;;1.10;;
77854;SDS011;67046;50.088;14.336;2023-04-15T01:00:09;1.20;;;1.00;;
77854;SDS011;67046;50.088;14.336;2023-04-15T01:00:42;1.40;;;1.20;;
77854;SDS011;67046;50.088;14.336;2023-04-15T01:01:14;1.30;;;1.00;;
77854;SDS011;67046;50.088;14.336;2023-04-15T01:02:18;1.10;;;1.00;;
77854;SDS011;67046;50.088;14.336;2023-04-15T01:02:51;1.50;;;0.90;;
77854;SDS011;67046;50.088;14.336;2023-04-15T01:03:23;1.30;;;1.00;;
77854;SDS011;67046;50.088;14.336;2023-04-15T01:04:30;1.30;;;0.90;;
77854;SDS011;67046;50.088;14.336;2023-04-15T01:05:03;1.20;;;1.10;;
77854;SDS011;67046;50.088;14.336;2023-04-15T01:05:35;1.70;;;1.10;;
77854;SDS011;67046;50.088;14.336;2023-04-15T01:06:07;1.70;;;1.00;;
77854;SDS011;67046;50.088;14.336;2023-04-15T01:06:39;1.20;;;1.00;;
77854;SDS011;67046;50.088;14.336;2023-04-15T01:07:12;1.40;;;1.10;;
77854;SDS011;67046;50.088;14.336;2023-04-15T01:07:44;1.30;;;1.10;;
77854;SDS011;67046;50.088;14.336;2023-04-15T01:08:15;1.60;;;1.30;;
77854;SDS011;67046;50.088;14.336;2023-04-15T01:08:47;1.40;;;1.10;;
77854;SDS011;67046;50.088;14.336;2023-04-15T01:09:20;1.30;;;1.20;;
77854;SDS011;67046;50.088;14.336;2023-04-15T01:09:52;1.50;;;1.30;;
77854;SDS011;67046;50.088;14.336;2023-04-15T01:10:24;1.40;;;1.20;;
77854;SDS011;67046;50.088;14.336;2023-04-15T01:10:56;1.20;;;1.10;;
77854;SDS011;67046;50.088;14.336;2023-04-15T01:11:31;3.80;;;1.20;;
77854;SDS011;67046;50.088;14.336;2023-04-15T01:12:06;1.70;;;1.40;;
77854;SDS011;67046;50.088;14.336;2023-04-15T01:12:40;1.70;;;1.30;;
77854;SDS011;67046;50.088;14.336;2023-04-15T01:13:13;1.50;;;1.10;;
77854;SDS011;67046;50.088;14.336;2023-04-15T01:13:45;1.30;;;1.10;;
77854;SDS011;67046;50.088;14.336;2023-04-15T01:14:18;1.50;;;1.20;;
77854;SDS011;67046;50.088;14.336;2023-04-15T01:15:22;1.60;;;1.20;;
77854;SDS011;67046;50.088;14.336;2023-04-15T01:15:55;1.20;;;1.10;;
77854;SDS011;67046;50.088;14.336;2023-04-15T01:16:28;1.70;;;1.20;;
77854;SDS011;67046;50.088;14.336;2023-04-15T01:17:00;1.40;;;1.00;;
77854;SDS011;67046;50.088;14.336;2023-04-15T01:17:32;1.20;;;0.90;;
77854;SDS011;67046;50.088;14.336;2023-04-15T01:18:05;1.30;;;0.90;;
77854;SDS011;67046;50.088;14.336;2023-04-15T01:18:38;1.10;;;0.90;;
77854;SDS011;67046;50.088;14.336;2023-04-15T01:19:10;1.70;;;1.10;;
77854;SDS011;67046;50.088;14.336;2023-04-15T01:19:44;2.10;;;1.00;;
77854;SDS011;67046;50.088;14.336;2023-04-15T01:20:17;1.50;;;1.10;;
77854;SDS011;67046;50.088;14.336;2023-04-15T01:20:49;2.30;;;1.20;;
77854;SDS011;67046;50.088;14.336;2023-04-15T01:21:21;1.20;;;1.00;;
77854;SDS011;67046;50.088;14.336;2023-04-15T01:21:54;1.30;;;1.10;;
77854;SDS011;67046;50.088;14.336;2023-04-15T01:22:26;1.40;;;1.00;;
77854;SDS011;67046;50.088;14.336;2023-04-15T01:22:59;1.60;;;1.10;;
77854;SDS011;67046;50.088;14.336;2023-04-15T01:23:32;3.70;;;1.10;;
77854;SDS011;67046;50.088;14.336;2023-04-15T01:24:08;1.90;;;1.10;;
77854;SDS011;67046;50.088;14.336;2023-04-15T01:24:42;2.10;;;1.20;;
77854;SDS011;67046;50.088;14.336;2023-04-15T01:25:32;1.50;;;1.00;;
77854;SDS011;67046;50.088;14.336;2023-04-15T01:26:05;1.30;;;1.00;;
77854;SDS011;67046;50.088;14.336;2023-04-15T01:26:41;1.50;;;1.00;;
77854;SDS011;67046;50.088;14.336;2023-04-15T01:27:12;1.40;;;1.00;;
77854;SDS011;67046;50.088;14.336;2023-04-15T01:27:45;1.40;;;0.90;;
77854;SDS011;67046;50.088;14.336;2023-04-15T01:28:18;1.60;;;1.00;;
77854;SDS011;67046;50.088;14.336;2023-04-15T01:28:50;1.50;;;0.90;;
77854;SDS011;67046;50.088;14.336;2023-04-15T01:29:22;1.20;;;0.90;;
77854;SDS011;67046;50.088;14.336;2023-04-15T01:29:54;1.30;;;0.80;;
77854;SDS011;67046;50.088;14.336;2023-04-15T01:31:32;1.10;;;0.80;;
77854;SDS011;67046;50.088;14.336;2023-04-15T01:31:57;1.50;;;0.90;;
77854;SDS011;67046;50.088;14.336;2023-04-15T01:32:29;1.50;;;0.90;;
77854;SDS011;67046;50.088;14.336;2023-04-15T01:33:01;1.90;;;0.80;;
77854;SDS011;67046;50.088;14.336;2023-04-15T01:33:33;1.50;;;1.00;;
77854;SDS011;67046;50.088;14.336;2023-04-15T01:34:05;0.90;;;0.70;;
77854;SDS011;67046;50.088;14.336;2023-04-15T01:34:37;1.60;;;1.00;;
77854;SDS011;67046;50.088;14.336;2023-04-15T01:35:10;1.40;;;0.90;;
77854;SDS011;67046;50.088;14.336;2023-04-15T01:35:42;1.90;;;0.90;;
77854;SDS011;67046;50.088;14.336;2023-04-15T01:36:15;1.60;;;0.80;;
77854;SDS011;67046;50.088;14.336;2023-04-15T01:36:47;1.00;;;0.90;;
77854;SDS011;67046;50.088;14.336;2023-04-15T01:37:19;1.10;;;0.70;;
77854;SDS011;67046;50.088;14.336;2023-04-15T01:37:51;1.40;;;0.70;;
77854;SDS011;67046;50.088;14.336;2023-04-15T01:38:26;1.20;;;0.80;;
77854;SDS011;67046;50.088;14.336;2023-04-15T01:38:58;1.40;;;0.90;;
77854;SDS011;67046;50.088;14.336;2023-04-15T01:39:30;1.50;;;0.80;;
77854;SDS011;67046;50.088;14.336;2023-04-15T01:40:02;1.40;;;0.90;;
77854;SDS011;67046;50.088;14.336;2023-04-15T01:41:06;1.30;;;0.80;;
77854;SDS011;67046;50.088;14.336;2023-04-15T01:42:13;1.70;;;0.70;;
77854;SDS011;67046;50.088;14.336;2023-04-15T01:42:45;1.50;;;0.90;;
77854;SDS011;67046;50.088;14.336;2023-04-15T01:43:17;1.00;;;0.80;;
77854;SDS011;67046;50.088;14.336;2023-04-15T01:43:49;1.20;;;0.80;;
77854;SDS011;67046;50.088;14.336;2023-04-15T01:44:21;1.70;;;0.90;;
77854;SDS011;67046;50.088;14.336;2023-04-15T01:44:53;1.20;;;0.80;;
77854;SDS011;67046;50.088;14.336;2023-04-15T01:45:25;1.40;;;0.90;;
77854;SDS011;67046;50.088;14.336;2023-04-15T01:45:57;1.30;;;0.70;;
77854;SDS011;67046;50.088;14.336;2023-04-15T01:46:29;1.20;;;0.70;;
77854;SDS011;67046;50.088;14.336;2023-04-15T01:47:01;1.30;;;0.70;;
77854;SDS011;67046;50.088;14.336;2023-04-15T01:47:33;1.30;;;0.70;;
77854;SDS011;67046;50.088;14.336;2023-04-15T01:48:05;2.70;;;1.20;;
77854;SDS011;67046;50.088;14.336;2023-04-15T01:48:37;1.40;;;0.90;;
77854;SDS011;67046;50.088;14.336;2023-04-15T01:49:09;1.10;;;0.80;;
77854;SDS011;67046;50.088;14.336;2023-04-15T01:49:41;1.30;;;0.70;;
77854;SDS011;67046;50.088;14.336;2023-04-15T01:50:13;1.30;;;0.80;;
77854;SDS011;67046;50.088;14.336;2023-04-15T01:50:46;1.90;;;0.60;;
77854;SDS011;67046;50.088;14.336;2023-04-15T01:51:18;1.10;;;0.70;;
77854;SDS011;67046;50.088;14.336;2023-04-15T01:51:51;1.00;;;0.70;;
77854;SDS011;67046;50.088;14.336;2023-04-15T01:52:23;1.30;;;0.70;;
77854;SDS011;67046;50.088;14.336;2023-04-15T01:52:55;1.30;;;0.80;;
77854;SDS011;67046;50.088;14.336;2023-04-15T01:53:27;1.20;;;0.70;;
77854;SDS011;67046;50.088;14.336;2023-04-15T01:53:59;1.70;;;0.90;;
77854;SDS011;67046;50.088;14.336;2023-04-15T01:54:31;0.90;;;0.60;;
77854;SDS011;67046;50.088;14.336;2023-04-15T01:55:04;1.50;;;0.90;;
77854;SDS011;67046;50.088;14.336;2023-04-15T01:55:36;1.10;;;0.70;;
77854;SDS011;67046;50.088;14.336;2023-04-15T01:56:08;1.80;;;1.10;;
77854;SDS011;67046;50.088;14.336;2023-04-15T01:56:40;1.50;;;0.90;;
77854;SDS011;67046;50.088;14.336;2023-04-15T01:57:12;1.00;;;0.50;;
77854;SDS011;67046;50.088;14.336;2023-04-15T01:57:44;1.60;;;0.70;;
77854;SDS011;67046;50.088;14.336;2023-04-15T01:58:17;1.50;;;0.80;;
77854;SDS011;67046;50.088;14.336;2023-04-15T01:58:49;1.00;;;0.70;;
77854;SDS011;67046;50.088;14.336;2023-04-15T01:59:22;1.30;;;0.60;;
77854;SDS011;67046;50.088;14.336;2023-04-15T01:59:54;1.30;;;0.70;;
77854;SDS011;67046;50.088;14.336;2023-04-15T02:00:26;1.80;;;0.60;;
77854;SDS011;67046;50.088;14.336;2023-04-15T02:00:59;1.10;;;0.60;;
77854;SDS011;67046;50.088;14.336;2023-04-15T02:01:31;0.90;;;0.60;;
77854;SDS011;67046;50.088;14.336;2023-04-15T02:02:03;1.70;;;0.60;;
77854;SDS011;67046;50.088;14.336;2023-04-15T02:02:35;1.00;;;0.60;;
77854;SDS011;67046;50.088;14.336;2023-04-15T02:03:08;1.00;;;0.70;;
77854;SDS011;67046;50.088;14.336;2023-04-15T02:03:40;1.10;;;0.60;;
77854;SDS011;67046;50.088;14.336;2023-04-15T02:04:12;1.00;;;0.50;;
77854;SDS011;67046;50.088;14.336;2023-04-15T02:04:47;1.60;;;0.60;;
77854;SDS011;67046;50.088;14.336;2023-04-15T02:05:51;1.30;;;0.60;;
77854;SDS011;67046;50.088;14.336;2023-04-15T02:06:22;1.50;;;0.70;;
77854;SDS011;67046;50.088;14.336;2023-04-15T02:06:54;1.30;;;0.70;;
77854;SDS011;67046;50.088;14.336;2023-04-15T02:08:02;3.20;;;0.70;;
77854;SDS011;67046;50.088;14.336;2023-04-15T02:08:34;1.20;;;0.70;;
77854;SDS011;67046;50.088;14.336;2023-04-15T02:09:06;1.80;;;0.80;;
77854;SDS011;67046;50.088;14.336;2023-04-15T02:09:38;1.70;;;1.00;;
77854;SDS011;67046;50.088;14.336;2023-04-15T02:10:10;1.60;;;1.00;;
77854;SDS011;67046;50.088;14.336;2023-04-15T02:10:47;1.20;;;0.70;;
77854;SDS011;67046;50.088;14.336;2023-04-15T02:11:19;1.40;;;0.80;;
77854;SDS011;67046;50.088;14.336;2023-04-15T02:11:51;2.00;;;1.00;;
77854;SDS011;67046;50.088;14.336;2023-04-15T02:12:24;1.50;;;0.80;;
77854;SDS011;67046;50.088;14.336;2023-04-15T02:12:57;1.70;;;1.00;;
77854;SDS011;67046;50.088;14.336;2023-04-15T02:14:01;1.30;;;0.70;;
77854;SDS011;67046;50.088;14.336;2023-04-15T02:14:36;1.40;;;0.90;;
77854;SDS011;67046;50.088;14.336;2023-04-15T02:15:08;1.50;;;0.90;;
77854;SDS011;67046;50.088;14.336;2023-04-15T02:15:40;1.40;;;0.80;;
77854;SDS011;67046;50.088;14.336;2023-04-15T02:16:18;1.30;;;0.70;;
77854;SDS011;67046;50.088;14.336;2023-04-15T02:16:50;1.30;;;0.60;;
77854;SDS011;67046;50.088;14.336;2023-04-15T02:17:22;1.30;;;0.60;;
77854;SDS011;67046;50.088;14.336;2023-04-15T02:17:54;0.90;;;0.60;;
77854;SDS011;67046;50.088;14.336;2023-04-15T02:18:26;1.90;;;0.70;;
77854;SDS011;67046;50.088;14.336;2023-04-15T02:18:58;0.70;;;0.50;;
77854;SDS011;67046;50.088;14.336;2023-04-15T02:19:31;1.40;;;0.90;;
77854;SDS011;67046;50.088;14.336;2023-04-15T02:20:04;1.40;;;0.90;;
77854;SDS011;67046;50.088;14.336;2023-04-15T02:20:37;1.30;;;0.60;;
77854;SDS011;67046;50.088;14.336;2023-04-15T02:21:10;1.30;;;0.70;;
77854;SDS011;67046;50.088;14.336;2023-04-15T02:21:42;1.10;;;0.60;;
77854;SDS011;67046;50.088;14.336;2023-04-15T02:22:14;1.30;;;0.90;;
77854;SDS011;67046;50.088;14.336;2023-04-15T02:22:48;1.20;;;0.90;;
77854;SDS011;67046;50.088;14.336;2023-04-15T02:23:52;1.10;;;0.90;;
77854;SDS011;67046;50.088;14.336;2023-04-15T02:24:25;1.80;;;0.70;;
77854;SDS011;67046;50.088;14.336;2023-04-15T02:24:56;1.30;;;0.80;;
77854;SDS011;67046;50.088;14.336;2023-04-15T02:25:28;1.20;;;0.70;;
77854;SDS011;67046;50.088;14.336;2023-04-15T02:26:00;1.70;;;0.80;;
77854;SDS011;67046;50.088;14.336;2023-04-15T02:26:33;1.30;;;0.70;;
77854;SDS011;67046;50.088;14.336;2023-04-15T02:27:04;0.70;;;0.40;;
77854;SDS011;67046;50.088;14.336;2023-04-15T02:27:36;0.70;;;0.50;;
77854;SDS011;67046;50.088;14.336;2023-04-15T02:28:08;1.00;;;0.40;;
77854;SDS011;67046;50.088;14.336;2023-04-15T02:29:12;0.50;;;0.30;;
77854;SDS011;67046;50.088;14.336;2023-04-15T02:29:45;0.90;;;0.30;;
77854;SDS011;67046;50.088;14.336;2023-04-15T02:30:17;0.60;;;0.40;;
77854;SDS011;67046;50.088;14.336;2023-04-15T02:30:49;0.20;;;0.20;;
77854;SDS011;67046;50.088;14.336;2023-04-15T02:31:23;1.40;;;0.40;;
77854;SDS011;67046;50.088;14.336;2023-04-15T02:31:55;0.50;;;0.40;;
77854;SDS011;67046;50.088;14.336;2023-04-15T02:32:27;1.00;;;0.60;;
77854;SDS011;67046;50.088;14.336;2023-04-15T02:32:59;0.90;;;0.50;;
77854;SDS011;67046;50.088;14.336;2023-04-15T02:33:32;2.00;;;0.50;;
77854;SDS011;67046;50.088;14.336;2023-04-15T02:34:04;0.90;;;0.50;;
77854;SDS011;67046;50.088;14.336;2023-04-15T02:34:37;0.70;;;0.40;;
77854;SDS011;67046;50.088;14.336;2023-04-15T02:35:11;1.00;;;0.60;;
77854;SDS011;67046;50.088;14.336;2023-04-15T02:35:43;1.40;;;0.50;;
77854;SDS011;67046;50.088;14.336;2023-04-15T02:36:16;1.00;;;0.50;;
77854;SDS011;67046;50.088;14.336;2023-04-15T02:36:48;0.60;;;0.40;;
77854;SDS011;67046;50.088;14.336;2023-04-15T02:37:20;0.80;;;0.50;;
77854;SDS011;67046;50.088;14.336;2023-04-15T02:37:52;0.90;;;0.50;;
77854;SDS011;67046;50.088;14.336;2023-04-15T02:38:24;0.80;;;0.50;;
77854;SDS011;67046;50.088;14.336;2023-04-15T02:38:56;1.10;;;0.70;;
77854;SDS011;67046;50.088;14.336;2023-04-15T02:39:28;1.00;;;0.70;;
77854;SDS011;67046;50.088;14.336;2023-04-15T02:40:00;0.70;;;0.40;;
77854;SDS011;67046;50.088;14.336;2023-04-15T02:40:32;0.90;;;0.50;;
77854;SDS011;67046;50.088;14.336;2023-04-15T02:41:04;0.90;;;0.60;;
77854;SDS011;67046;50.088;14.336;2023-04-15T02:41:36;1.10;;;0.60;;
77854;SDS011;67046;50.088;14.336;2023-04-15T02:42:08;0.50;;;0.40;;
77854;SDS011;67046;50.088;14.336;2023-04-15T02:42:40;0.80;;;0.40;;
77854;SDS011;67046;50.088;14.336;2023-04-15T02:43:13;0.60;;;0.50;;
77854;SDS011;67046;50.088;14.336;2023-04-15T02:43:45;0.90;;;0.50;;
77854;SDS011;67046;50.088;14.336;2023-04-15T02:44:17;2.60;;;0.60;;
77854;SDS011;67046;50.088;14.336;2023-04-15T02:44:50;0.90;;;0.40;;
77854;SDS011;67046;50.088;14.336;2023-04-15T02:45:22;0.80;;;0.40;;
77854;SDS011;67046;50.088;14.336;2023-04-15T02:45:57;0.90;;;0.60;;
77854;SDS011;67046;50.088;14.336;2023-04-15T02:46:29;0.80;;;0.60;;
77854;SDS011;67046;50.088;14.336;2023-04-15T02:47:01;1.00;;;0.50;;
77854;SDS011;67046;50.088;14.336;2023-04-15T02:47:35;0.80;;;0.50;;
77854;SDS011;67046;50.088;14.336;2023-04-15T02:48:09;0.90;;;0.60;;
77854;SDS011;67046;50.088;14.336;2023-04-15T02:48:41;0.70;;;0.50;;
77854;SDS011;67046;50.088;14.336;2023-04-15T02:49:13;0.90;;;0.60;;
77854;SDS011;67046;50.088;14.336;2023-04-15T02:49:46;1.20;;;0.50;;
77854;SDS011;67046;50.088;14.336;2023-04-15T02:50:18;1.20;;;0.70;;
77854;SDS011;67046;50.088;14.336;2023-04-15T02:51:22;0.90;;;0.60;;
77854;SDS011;67046;50.088;14.336;2023-04-15T02:51:54;1.80;;;0.70;;
77854;SDS011;67046;50.088;14.336;2023-04-15T02:52:58;1.50;;;0.80;;
77854;SDS011;67046;50.088;14.336;2023-04-15T02:53:31;0.80;;;0.60;;
77854;SDS011;67046;50.088;14.336;2023-04-15T02:54:03;1.00;;;0.60;;
77854;SDS011;67046;50.088;14.336;2023-04-15T02:54:35;1.10;;;0.60;;
77854;SDS011;67046;50.088;14.336;2023-04-15T02:55:07;1.50;;;0.50;;
77854;SDS011;67046;50.088;14.336;2023-04-15T02:55:40;0.90;;;0.50;;
77854;SDS011;67046;50.088;14.336;2023-04-15T02:56:13;0.60;;;0.30;;
77854;SDS011;67046;50.088;14.336;2023-04-15T02:56:46;0.90;;;0.60;;
77854;SDS011;67046;50.088;14.336;2023-04-15T02:57:18;1.50;;;0.60;;
77854;SDS011;67046;50.088;14.336;2023-04-15T02:57:50;1.30;;;0.50;;
77854;SDS011;67046;50.088;14.336;2023-04-15T02:58:22;1.00;;;0.60;;
77854;SDS011;67046;50.088;14.336;2023-04-15T02:58:54;0.80;;;0.50;;
77854;SDS011;67046;50.088;14.336;2023-04-15T02:59:27;1.90;;;0.70;;
77854;SDS011;67046;50.088;14.336;2023-04-15T02:59:59;1.00;;;0.60;;
77854;SDS011;67046;50.088;14.336;2023-04-15T03:00:31;0.80;;;0.50;;
77854;SDS011;67046;50.088;14.336;2023-04-15T03:01:03;1.50;;;0.80;;
77854;SDS011;67046;50.088;14.336;2023-04-15T03:01:35;1.20;;;0.80;;
77854;SDS011;67046;50.088;14.336;2023-04-15T03:02:06;1.30;;;0.90;;
77854;SDS011;67046;50.088;14.336;2023-04-15T03:02:38;1.70;;;0.80;;
77854;SDS011;67046;50.088;14.336;2023-04-15T03:03:12;0.70;;;0.50;;
77854;SDS011;67046;50.088;14.336;2023-04-15T03:03:45;2.40;;;0.60;;
77854;SDS011;67046;50.088;14.336;2023-04-15T03:04:17;1.00;;;0.60;;
77854;SDS011;67046;50.088;14.336;2023-04-15T03:04:49;1.00;;;0.80;;
77854;SDS011;67046;50.088;14.336;2023-04-15T03:05:21;0.90;;;0.60;;
77854;SDS011;67046;50.088;14.336;2023-04-15T03:05:56;1.00;;;0.70;;
77854;SDS011;67046;50.088;14.336;2023-04-15T03:06:28;0.80;;;0.60;;
77854;SDS011;67046;50.088;14.336;2023-04-15T03:07:00;1.70;;;0.60;;
77854;SDS011;67046;50.088;14.336;2023-04-15T03:07:32;0.70;;;0.50;;
77854;SDS011;67046;50.088;14.336;2023-04-15T03:08:04;1.00;;;0.70;;
77854;SDS011;67046;50.088;14.336;2023-04-15T03:08:35;0.70;;;0.50;;
77854;SDS011;67046;50.088;14.336;2023-04-15T03:09:07;0.60;;;0.40;;
77854;SDS011;67046;50.088;14.336;2023-04-15T03:09:39;2.50;;;1.00;;
77854;SDS011;67046;50.088;14.336;2023-04-15T03:10:11;1.10;;;0.60;;
77854;SDS011;67046;50.088;14.336;2023-04-15T03:10:43;1.10;;;0.70;;
77854;SDS011;67046;50.088;14.336;2023-04-15T03:11:15;1.50;;;0.50;;
77854;SDS011;67046;50.088;14.336;2023-04-15T03:11:47;1.10;;;0.60;;
77854;SDS011;67046;50.088;14.336;2023-04-15T03:12:19;0.90;;;0.50;;
77854;SDS011;67046;50.088;14.336;2023-04-15T03:12:50;1.00;;;0.60;;
77854;SDS011;67046;50.088;14.336;2023-04-15T03:13:22;1.40;;;0.60;;
77854;SDS011;67046;50.088;14.336;2023-04-15T03:14:26;0.90;;;0.50;;
77854;SDS011;67046;50.088;14.336;2023-04-15T03:14:58;1.40;;;0.80;;
77854;SDS011;67046;50.088;14.336;2023-04-15T03:15:32;0.90;;;0.60;;
77854;SDS011;67046;50.088;14.336;2023-04-15T03:16:04;1.50;;;0.80;;
77854;SDS011;67046;50.088;14.336;2023-04-15T03:17:08;0.90;;;0.50;;
77854;SDS011;67046;50.088;14.336;2023-04-15T03:17:40;1.20;;;0.60;;
77854;SDS011;67046;50.088;14.336;2023-04-15T03:18:14;1.10;;;0.70;;
77854;SDS011;67046;50.088;14.336;2023-04-15T03:18:46;1.40;;;0.80;;
77854;SDS011;67046;50.088;14.336;2023-04-15T03:19:17;1.00;;;0.70;;
77854;SDS011;67046;50.088;14.336;2023-04-15T03:19:49;1.20;;;0.60;;
77854;SDS011;67046;50.088;14.336;2023-04-15T03:20:21;0.90;;;0.60;;
77854;SDS011;67046;50.088;14.336;2023-04-15T03:21:25;1.00;;;0.50;;
77854;SDS011;67046;50.088;14.336;2023-04-15T03:21:58;1.10;;;0.60;;
77854;SDS011;67046;50.088;14.336;2023-04-15T03:22:30;1.00;;;0.70;;
77854;SDS011;67046;50.088;14.336;2023-04-15T03:23:02;0.90;;;0.40;;
77854;SDS011;67046;50.088;14.336;2023-04-15T03:23:34;0.90;;;0.50;;
77854;SDS011;67046;50.088;14.336;2023-04-15T03:24:06;1.00;;;0.60;;
77854;SDS011;67046;50.088;14.336;2023-04-15T03:24:38;1.00;;;0.50;;
77854;SDS011;67046;50.088;14.336;2023-04-15T03:25:09;1.30;;;0.50;;
77854;SDS011;67046;50.088;14.336;2023-04-15T03:25:41;1.20;;;0.60;;
77854;SDS011;67046;50.088;14.336;2023-04-15T03:26:27;1.00;;;0.60;;
77854;SDS011;67046;50.088;14.336;2023-04-15T03:27:00;1.20;;;0.80;;
77854;SDS011;67046;50.088;14.336;2023-04-15T03:27:32;1.20;;;0.60;;